sensor_id;sensor_type;location;lat;lon;timestamp;temperature;humidity
45491;DHT22;31237;45.586;13.782;2022-07-30T00:02:17;22.10;85.80
45491;DHT22;31237;45.586;13.782;2022-07-30T00:04:44;22.10;86.20
45491;DHT22;31237;45.586;13.782;2022-07-30T00:07:10;22.00;86.40
45491;DHT22;31237;45.586;13.782;2022-07-30T00:09:36;22.00;86.80
45491;DHT22;31237;45.586;13.782;2022-07-30T00:12:02;22.00;87.20
45491;DHT22;31237;45.586;13.782;2022-07-30T00:14:28;22.00;87.50
45491;DHT22;31237;45.586;13.782;2022-07-30T00:16:53;22.10;87.90
45491;DHT22;31237;45.586;13.782;2022-07-30T00:19:19;22.10;88.20
45491;DHT22;31237;45.586;13.782;2022-07-30T00:21:45;22.10;88.20
45491;DHT22;31237;45.586;13.782;2022-07-30T00:24:11;22.20;88.40
45491;DHT22;31237;45.586;13.782;2022-07-30T00:26:37;22.20;88.40
45491;DHT22;31237;45.586;13.782;2022-07-30T00:29:03;22.20;88.40
45491;DHT22;31237;45.586;13.782;2022-07-30T00:31:29;22.20;88.70
45491;DHT22;31237;45.586;13.782;2022-07-30T00:33:55;22.20;89.40
45491;DHT22;31237;45.586;13.782;2022-07-30T00:36:21;22.20;88.80
45491;DHT22;31237;45.586;13.782;2022-07-30T00:38:47;22.20;88.80
45491;DHT22;31237;45.586;13.782;2022-07-30T00:41:13;22.20;88.70
45491;DHT22;31237;45.586;13.782;2022-07-30T00:43:38;22.20;88.70
45491;DHT22;31237;45.586;13.782;2022-07-30T00:46:04;22.10;88.60
45491;DHT22;31237;45.586;13.782;2022-07-30T00:48:30;22.10;88.60
45491;DHT22;31237;45.586;13.782;2022-07-30T00:50:56;22.00;88.70
45491;DHT22;31237;45.586;13.782;2022-07-30T00:53:21;22.00;88.80
45491;DHT22;31237;45.586;13.782;2022-07-30T00:55:47;21.90;89.00
45491;DHT22;31237;45.586;13.782;2022-07-30T00:58:13;21.80;89.20
45491;DHT22;31237;45.586;13.782;2022-07-30T01:00:38;21.80;89.60
45491;DHT22;31237;45.586;13.782;2022-07-30T01:03:04;21.60;89.70
45491;DHT22;31237;45.586;13.782;2022-07-30T01:05:31;21.60;89.90
45491;DHT22;31237;45.586;13.782;2022-07-30T01:07:57;21.50;90.00
45491;DHT22;31237;45.586;13.782;2022-07-30T01:10:23;21.50;90.10
45491;DHT22;31237;45.586;13.782;2022-07-30T01:12:49;21.40;90.40
45491;DHT22;31237;45.586;13.782;2022-07-30T01:15:17;21.40;90.20
45491;DHT22;31237;45.586;13.782;2022-07-30T01:17:45;21.30;90.30
45491;DHT22;31237;45.586;13.782;2022-07-30T01:20:24;21.30;90.40
45491;DHT22;31237;45.586;13.782;2022-07-30T01:28:17;21.10;90.70
45491;DHT22;31237;45.586;13.782;2022-07-30T01:30:44;21.10;90.80
45491;DHT22;31237;45.586;13.782;2022-07-30T01:33:13;21.10;90.90
45491;DHT22;31237;45.586;13.782;2022-07-30T01:35:39;21.10;90.90
45491;DHT22;31237;45.586;13.782;2022-07-30T01:38:06;21.10;91.00
45491;DHT22;31237;45.586;13.782;2022-07-30T01:40:34;21.10;91.10
45491;DHT22;31237;45.586;13.782;2022-07-30T01:43:02;21.10;91.10
45491;DHT22;31237;45.586;13.782;2022-07-30T01:45:29;21.20;91.10
45491;DHT22;31237;45.586;13.782;2022-07-30T01:47:58;21.20;91.10
45491;DHT22;31237;45.586;13.782;2022-07-30T01:50:27;21.20;91.10
45491;DHT22;31237;45.586;13.782;2022-07-30T01:52:54;21.20;91.00
45491;DHT22;31237;45.586;13.782;2022-07-30T01:55:36;21.20;91.00
45491;DHT22;31237;45.586;13.782;2022-07-30T01:58:05;21.20;90.90
45491;DHT22;31237;45.586;13.782;2022-07-30T02:00:35;21.10;90.90
45491;DHT22;31237;45.586;13.782;2022-07-30T02:03:03;21.10;90.80
45491;DHT22;31237;45.586;13.782;2022-07-30T02:05:31;21.00;90.90
45491;DHT22;31237;45.586;13.782;2022-07-30T02:12:55;20.80;91.00
45491;DHT22;31237;45.586;13.782;2022-07-30T02:20:28;20.60;91.20
45491;DHT22;31237;45.586;13.782;2022-07-30T02:23:05;20.60;91.30
45491;DHT22;31237;45.586;13.782;2022-07-30T02:25:34;20.60;91.30
45491;DHT22;31237;45.586;13.782;2022-07-30T02:28:04;20.50;91.30
45491;DHT22;31237;45.586;13.782;2022-07-30T02:30:33;20.50;91.30
45491;DHT22;31237;45.586;13.782;2022-07-30T02:33:05;20.40;91.40
45491;DHT22;31237;45.586;13.782;2022-07-30T02:35:33;20.40;91.60
45491;DHT22;31237;45.586;13.782;2022-07-30T02:38:00;20.40;91.70
45491;DHT22;31237;45.586;13.782;2022-07-30T02:40:27;20.40;91.80
45491;DHT22;31237;45.586;13.782;2022-07-30T02:42:53;20.40;91.80
45491;DHT22;31237;45.586;13.782;2022-07-30T02:45:21;20.40;91.90
45491;DHT22;31237;45.586;13.782;2022-07-30T02:47:51;20.40;91.90
45491;DHT22;31237;45.586;13.782;2022-07-30T02:50:19;20.40;91.90
45491;DHT22;31237;45.586;13.782;2022-07-30T02:52:46;20.40;91.90
45491;DHT22;31237;45.586;13.782;2022-07-30T02:55:13;20.50;92.00
45491;DHT22;31237;45.586;13.782;2022-07-30T02:57:41;20.50;91.90
45491;DHT22;31237;45.586;13.782;2022-07-30T03:00:07;20.50;92.00
45491;DHT22;31237;45.586;13.782;2022-07-30T03:02:34;20.50;92.00
45491;DHT22;31237;45.586;13.782;2022-07-30T03:05:02;20.50;92.00
45491;DHT22;31237;45.586;13.782;2022-07-30T03:07:31;20.50;92.00
45491;DHT22;31237;45.586;13.782;2022-07-30T03:09:57;20.50;92.00
45491;DHT22;31237;45.586;13.782;2022-07-30T03:12:25;20.50;92.00
45491;DHT22;31237;45.586;13.782;2022-07-30T03:14:53;20.60;92.00
45491;DHT22;31237;45.586;13.782;2022-07-30T03:17:21;20.60;92.00
45491;DHT22;31237;45.586;13.782;2022-07-30T03:19:48;20.60;92.00
45491;DHT22;31237;45.586;13.782;2022-07-30T03:22:17;20.60;91.90
45491;DHT22;31237;45.586;13.782;2022-07-30T03:24:44;20.60;92.00
45491;DHT22;31237;45.586;13.782;2022-07-30T03:27:12;20.60;92.00
45491;DHT22;31237;45.586;13.782;2022-07-30T03:29:39;20.60;91.90
45491;DHT22;31237;45.586;13.782;2022-07-30T03:32:06;20.60;92.20
45491;DHT22;31237;45.586;13.782;2022-07-30T03:34:32;20.60;92.00
45491;DHT22;31237;45.586;13.782;2022-07-30T03:37:00;20.60;91.90
45491;DHT22;31237;45.586;13.782;2022-07-30T03:39:28;20.60;91.90
45491;DHT22;31237;45.586;13.782;2022-07-30T03:41:55;20.60;91.90
45491;DHT22;31237;45.586;13.782;2022-07-30T03:44:21;20.70;92.00
45491;DHT22;31237;45.586;13.782;2022-07-30T03:46:47;20.70;92.00
45491;DHT22;31237;45.586;13.782;2022-07-30T03:49:16;20.70;92.00
45491;DHT22;31237;45.586;13.782;2022-07-30T03:51:42;20.70;91.90
45491;DHT22;31237;45.586;13.782;2022-07-30T03:54:09;20.70;91.90
45491;DHT22;31237;45.586;13.782;2022-07-30T03:56:36;20.70;91.80
45491;DHT22;31237;45.586;13.782;2022-07-30T03:59:03;20.70;91.80
45491;DHT22;31237;45.586;13.782;2022-07-30T04:01:29;20.70;91.90
45491;DHT22;31237;45.586;13.782;2022-07-30T04:04:03;20.70;91.90
45491;DHT22;31237;45.586;13.782;2022-07-30T04:06:29;20.70;91.90
45491;DHT22;31237;45.586;13.782;2022-07-30T04:08:54;20.70;91.90
45491;DHT22;31237;45.586;13.782;2022-07-30T04:11:20;20.70;91.90
45491;DHT22;31237;45.586;13.782;2022-07-30T04:13:46;20.70;91.90
45491;DHT22;31237;45.586;13.782;2022-07-30T04:19:21;20.60;92.00
45491;DHT22;31237;45.586;13.782;2022-07-30T04:21:48;20.60;92.10
45491;DHT22;31237;45.586;13.782;2022-07-30T04:24:16;20.60;92.10
45491;DHT22;31237;45.586;13.782;2022-07-30T04:26:44;20.60;92.20
45491;DHT22;31237;45.586;13.782;2022-07-30T04:29:10;20.70;92.30
45491;DHT22;31237;45.586;13.782;2022-07-30T04:31:36;20.70;92.30
45491;DHT22;31237;45.586;13.782;2022-07-30T04:34:03;20.70;92.30
45491;DHT22;31237;45.586;13.782;2022-07-30T04:36:30;20.70;92.40
45491;DHT22;31237;45.586;13.782;2022-07-30T04:38:57;20.70;92.40
45491;DHT22;31237;45.586;13.782;2022-07-30T04:41:23;20.80;92.50
45491;DHT22;31237;45.586;13.782;2022-07-30T04:43:49;20.80;92.50
45491;DHT22;31237;45.586;13.782;2022-07-30T04:46:15;20.80;92.50
45491;DHT22;31237;45.586;13.782;2022-07-30T04:48:41;20.80;92.50
45491;DHT22;31237;45.586;13.782;2022-07-30T04:51:12;20.80;92.50
45491;DHT22;31237;45.586;13.782;2022-07-30T04:53:39;20.90;92.50
45491;DHT22;31237;45.586;13.782;2022-07-30T04:56:07;20.90;92.50
45491;DHT22;31237;45.586;13.782;2022-07-30T04:58:34;20.90;92.50
45491;DHT22;31237;45.586;13.782;2022-07-30T05:01:01;20.90;92.50
45491;DHT22;31237;45.586;13.782;2022-07-30T05:03:29;20.90;92.50
45491;DHT22;31237;45.586;13.782;2022-07-30T05:05:56;20.90;92.40
45491;DHT22;31237;45.586;13.782;2022-07-30T05:08:26;20.90;92.40
45491;DHT22;31237;45.586;13.782;2022-07-30T05:10:53;20.90;92.40
45491;DHT22;31237;45.586;13.782;2022-07-30T05:13:19;20.90;92.50
45491;DHT22;31237;45.586;13.782;2022-07-30T05:15:45;21.00;92.50
45491;DHT22;31237;45.586;13.782;2022-07-30T05:18:11;21.00;92.50
45491;DHT22;31237;45.586;13.782;2022-07-30T05:20:37;21.00;92.50
45491;DHT22;31237;45.586;13.782;2022-07-30T05:23:03;21.10;92.50
45491;DHT22;31237;45.586;13.782;2022-07-30T05:25:29;21.10;92.50
45491;DHT22;31237;45.586;13.782;2022-07-30T05:27:55;21.10;92.50
45491;DHT22;31237;45.586;13.782;2022-07-30T05:30:23;21.10;92.50
45491;DHT22;31237;45.586;13.782;2022-07-30T05:32:49;21.20;92.60
45491;DHT22;31237;45.586;13.782;2022-07-30T05:35:15;21.20;92.50
45491;DHT22;31237;45.586;13.782;2022-07-30T05:37:41;21.20;92.50
45491;DHT22;31237;45.586;13.782;2022-07-30T05:40:07;21.30;92.40
45491;DHT22;31237;45.586;13.782;2022-07-30T05:42:33;21.20;92.30
45491;DHT22;31237;45.586;13.782;2022-07-30T05:44:59;21.30;92.30
45491;DHT22;31237;45.586;13.782;2022-07-30T05:47:25;21.30;92.40
45491;DHT22;31237;45.586;13.782;2022-07-30T05:49:52;21.30;92.40
45491;DHT22;31237;45.586;13.782;2022-07-30T05:52:18;21.30;92.40
45491;DHT22;31237;45.586;13.782;2022-07-30T05:54:44;21.30;92.50
45491;DHT22;31237;45.586;13.782;2022-07-30T05:57:09;21.40;92.50
45491;DHT22;31237;45.586;13.782;2022-07-30T05:59:35;21.40;92.50
45491;DHT22;31237;45.586;13.782;2022-07-30T06:02:01;21.50;92.50
45491;DHT22;31237;45.586;13.782;2022-07-30T06:04:28;21.50;92.40
45491;DHT22;31237;45.586;13.782;2022-07-30T06:06:54;21.60;92.40
45491;DHT22;31237;45.586;13.782;2022-07-30T06:09:20;21.60;92.30
45491;DHT22;31237;45.586;13.782;2022-07-30T06:11:46;21.70;92.40
45491;DHT22;31237;45.586;13.782;2022-07-30T06:14:11;21.80;92.30
45491;DHT22;31237;45.586;13.782;2022-07-30T06:16:37;21.80;92.30
45491;DHT22;31237;45.586;13.782;2022-07-30T06:19:03;21.90;92.20
45491;DHT22;31237;45.586;13.782;2022-07-30T06:21:29;21.90;92.20
45491;DHT22;31237;45.586;13.782;2022-07-30T06:23:55;22.10;92.10
45491;DHT22;31237;45.586;13.782;2022-07-30T06:26:20;22.10;92.10
45491;DHT22;31237;45.586;13.782;2022-07-30T06:28:46;22.20;92.00
45491;DHT22;31237;45.586;13.782;2022-07-30T06:31:12;22.30;91.90
45491;DHT22;31237;45.586;13.782;2022-07-30T06:33:38;22.40;91.80
45491;DHT22;31237;45.586;13.782;2022-07-30T06:36:04;22.40;91.60
45491;DHT22;31237;45.586;13.782;2022-07-30T06:38:30;22.50;91.30
45491;DHT22;31237;45.586;13.782;2022-07-30T06:40:56;22.50;91.10
45491;DHT22;31237;45.586;13.782;2022-07-30T06:43:22;22.60;91.10
45491;DHT22;31237;45.586;13.782;2022-07-30T06:45:47;22.70;91.10
45491;DHT22;31237;45.586;13.782;2022-07-30T06:48:13;22.80;91.10
45491;DHT22;31237;45.586;13.782;2022-07-30T06:50:39;22.80;91.10
45491;DHT22;31237;45.586;13.782;2022-07-30T06:53:06;22.90;91.00
45491;DHT22;31237;45.586;13.782;2022-07-30T06:55:32;23.00;90.90
45491;DHT22;31237;45.586;13.782;2022-07-30T06:57:58;23.10;90.90
45491;DHT22;31237;45.586;13.782;2022-07-30T07:00:24;23.20;90.80
45491;DHT22;31237;45.586;13.782;2022-07-30T07:02:49;23.30;90.70
45491;DHT22;31237;45.586;13.782;2022-07-30T07:05:16;23.40;90.50
45491;DHT22;31237;45.586;13.782;2022-07-30T07:07:42;23.50;90.40
45491;DHT22;31237;45.586;13.782;2022-07-30T07:10:09;23.50;90.10
45491;DHT22;31237;45.586;13.782;2022-07-30T07:12:35;23.50;89.70
45491;DHT22;31237;45.586;13.782;2022-07-30T07:15:01;23.50;89.40
45491;DHT22;31237;45.586;13.782;2022-07-30T07:17:27;23.50;89.10
45491;DHT22;31237;45.586;13.782;2022-07-30T07:19:53;23.50;89.20
45491;DHT22;31237;45.586;13.782;2022-07-30T07:22:19;23.50;89.10
45491;DHT22;31237;45.586;13.782;2022-07-30T07:24:44;23.60;89.30
45491;DHT22;31237;45.586;13.782;2022-07-30T07:27:10;23.70;89.50
45491;DHT22;31237;45.586;13.782;2022-07-30T07:29:35;23.80;89.30
45491;DHT22;31237;45.586;13.782;2022-07-30T07:32:01;24.00;88.80
45491;DHT22;31237;45.586;13.782;2022-07-30T07:34:27;24.10;88.10
45491;DHT22;31237;45.586;13.782;2022-07-30T07:36:53;24.20;87.60
45491;DHT22;31237;45.586;13.782;2022-07-30T07:39:18;24.20;87.50
45491;DHT22;31237;45.586;13.782;2022-07-30T07:41:44;24.30;87.50
45491;DHT22;31237;45.586;13.782;2022-07-30T07:44:10;24.30;87.50
45491;DHT22;31237;45.586;13.782;2022-07-30T07:46:35;24.30;87.40
45491;DHT22;31237;45.586;13.782;2022-07-30T07:49:01;24.40;87.50
45491;DHT22;31237;45.586;13.782;2022-07-30T07:51:27;24.40;87.40
45491;DHT22;31237;45.586;13.782;2022-07-30T07:53:53;24.50;87.40
45491;DHT22;31237;45.586;13.782;2022-07-30T07:56:18;24.50;87.30
45491;DHT22;31237;45.586;13.782;2022-07-30T07:58:46;24.60;87.10
45491;DHT22;31237;45.586;13.782;2022-07-30T08:01:11;24.60;87.00
45491;DHT22;31237;45.586;13.782;2022-07-30T08:03:37;24.70;86.90
45491;DHT22;31237;45.586;13.782;2022-07-30T08:06:03;24.70;86.80
45491;DHT22;31237;45.586;13.782;2022-07-30T08:08:29;24.80;86.60
45491;DHT22;31237;45.586;13.782;2022-07-30T08:10:55;24.80;86.50
45491;DHT22;31237;45.586;13.782;2022-07-30T08:13:21;24.80;86.40
45491;DHT22;31237;45.586;13.782;2022-07-30T08:15:48;24.90;86.20
45491;DHT22;31237;45.586;13.782;2022-07-30T08:18:14;25.00;86.30
45491;DHT22;31237;45.586;13.782;2022-07-30T08:20:39;25.10;86.00
45491;DHT22;31237;45.586;13.782;2022-07-30T08:23:06;25.20;85.30
45491;DHT22;31237;45.586;13.782;2022-07-30T08:25:32;25.30;85.00
45491;DHT22;31237;45.586;13.782;2022-07-30T08:27:58;25.40;84.50
45491;DHT22;31237;45.586;13.782;2022-07-30T08:30:27;25.50;84.10
45491;DHT22;31237;45.586;13.782;2022-07-30T08:32:52;25.60;84.00
45491;DHT22;31237;45.586;13.782;2022-07-30T08:35:18;25.70;83.90
45491;DHT22;31237;45.586;13.782;2022-07-30T08:37:44;25.90;83.80
45491;DHT22;31237;45.586;13.782;2022-07-30T08:40:10;25.90;83.30
45491;DHT22;31237;45.586;13.782;2022-07-30T08:42:37;26.10;82.70
45491;DHT22;31237;45.586;13.782;2022-07-30T08:45:03;26.20;82.10
45491;DHT22;31237;45.586;13.782;2022-07-30T08:47:33;26.20;81.60
45491;DHT22;31237;45.586;13.782;2022-07-30T08:50:00;26.20;81.20
45491;DHT22;31237;45.586;13.782;2022-07-30T08:52:39;26.30;81.10
45491;DHT22;31237;45.586;13.782;2022-07-30T08:55:05;26.30;80.10
45491;DHT22;31237;45.586;13.782;2022-07-30T08:57:33;26.40;79.90
45491;DHT22;31237;45.586;13.782;2022-07-30T08:59:59;26.40;79.80
45491;DHT22;31237;45.586;13.782;2022-07-30T09:02:25;26.50;78.20
45491;DHT22;31237;45.586;13.782;2022-07-30T09:04:51;26.50;77.10
45491;DHT22;31237;45.586;13.782;2022-07-30T09:07:17;26.50;75.70
45491;DHT22;31237;45.586;13.782;2022-07-30T09:09:43;26.50;74.50
45491;DHT22;31237;45.586;13.782;2022-07-30T09:12:47;26.40;74.00
45491;DHT22;31237;45.586;13.782;2022-07-30T09:15:17;26.40;73.30
45491;DHT22;31237;45.586;13.782;2022-07-30T09:20:10;26.40;73.20
45491;DHT22;31237;45.586;13.782;2022-07-30T09:22:50;26.40;72.70
45491;DHT22;31237;45.586;13.782;2022-07-30T09:25:41;26.40;72.30
45491;DHT22;31237;45.586;13.782;2022-07-30T09:28:08;26.20;71.30
45491;DHT22;31237;45.586;13.782;2022-07-30T09:30:52;26.20;71.10
45491;DHT22;31237;45.586;13.782;2022-07-30T09:36:08;26.00;71.20
45491;DHT22;31237;45.586;13.782;2022-07-30T09:38:44;26.00;71.40
45491;DHT22;31237;45.586;13.782;2022-07-30T09:41:10;26.10;71.70
45491;DHT22;31237;45.586;13.782;2022-07-30T09:43:47;26.10;71.10
45491;DHT22;31237;45.586;13.782;2022-07-30T09:46:13;26.10;71.50
45491;DHT22;31237;45.586;13.782;2022-07-30T09:48:40;26.20;70.90
45491;DHT22;31237;45.586;13.782;2022-07-30T09:51:06;26.30;70.70
45491;DHT22;31237;45.586;13.782;2022-07-30T09:53:32;26.40;70.70
45491;DHT22;31237;45.586;13.782;2022-07-30T09:55:58;26.50;69.60
45491;DHT22;31237;45.586;13.782;2022-07-30T09:58:37;26.60;69.20
45491;DHT22;31237;45.586;13.782;2022-07-30T10:01:04;26.70;68.30
45491;DHT22;31237;45.586;13.782;2022-07-30T10:03:29;26.80;68.30
45491;DHT22;31237;45.586;13.782;2022-07-30T10:05:58;26.90;67.30
45491;DHT22;31237;45.586;13.782;2022-07-30T10:11:20;27.10;64.20
45491;DHT22;31237;45.586;13.782;2022-07-30T10:13:54;27.20;64.80
45491;DHT22;31237;45.586;13.782;2022-07-30T10:16:21;27.20;64.20
45491;DHT22;31237;45.586;13.782;2022-07-30T10:18:47;27.40;63.60
45491;DHT22;31237;45.586;13.782;2022-07-30T10:21:13;27.40;62.50
45491;DHT22;31237;45.586;13.782;2022-07-30T10:23:40;27.50;62.40
45491;DHT22;31237;45.586;13.782;2022-07-30T10:26:07;27.60;62.80
45491;DHT22;31237;45.586;13.782;2022-07-30T10:28:33;27.60;62.60
45491;DHT22;31237;45.586;13.782;2022-07-30T10:30:59;27.70;61.40
45491;DHT22;31237;45.586;13.782;2022-07-30T10:33:29;27.70;61.20
45491;DHT22;31237;45.586;13.782;2022-07-30T10:35:56;27.70;60.40
45491;DHT22;31237;45.586;13.782;2022-07-30T10:38:31;27.60;60.10
45491;DHT22;31237;45.586;13.782;2022-07-30T10:41:10;27.60;59.70
45491;DHT22;31237;45.586;13.782;2022-07-30T10:49:13;27.50;63.40
45491;DHT22;31237;45.586;13.782;2022-07-30T10:51:50;27.30;64.00
45491;DHT22;31237;45.586;13.782;2022-07-30T10:57:04;27.00;66.20
45491;DHT22;31237;45.586;13.782;2022-07-30T11:02:29;26.80;67.90
45491;DHT22;31237;45.586;13.782;2022-07-30T11:07:43;26.60;68.60
45491;DHT22;31237;45.586;13.782;2022-07-30T11:10:33;26.60;68.30
45491;DHT22;31237;45.586;13.782;2022-07-30T11:12:59;26.50;68.70
45491;DHT22;31237;45.586;13.782;2022-07-30T11:18:20;26.60;68.60
45491;DHT22;31237;45.586;13.782;2022-07-30T11:21:18;26.70;68.30
45491;DHT22;31237;45.586;13.782;2022-07-30T11:23:44;26.80;69.20
45491;DHT22;31237;45.586;13.782;2022-07-30T11:29:03;27.10;68.20
45491;DHT22;31237;45.586;13.782;2022-07-30T11:31:34;27.30;68.10
45491;DHT22;31237;45.586;13.782;2022-07-30T11:42:34;27.60;65.00
45491;DHT22;31237;45.586;13.782;2022-07-30T11:45:23;27.60;64.10
45491;DHT22;31237;45.586;13.782;2022-07-30T11:47:53;27.70;63.80
45491;DHT22;31237;45.586;13.782;2022-07-30T11:50:31;27.70;63.60
45491;DHT22;31237;45.586;13.782;2022-07-30T11:53:12;27.90;63.90
45491;DHT22;31237;45.586;13.782;2022-07-30T11:55:43;28.00;63.40
45491;DHT22;31237;45.586;13.782;2022-07-30T11:58:33;28.20;63.20
45491;DHT22;31237;45.586;13.782;2022-07-30T12:01:12;28.30;62.40
45491;DHT22;31237;45.586;13.782;2022-07-30T12:03:42;28.40;62.30
45491;DHT22;31237;45.586;13.782;2022-07-30T12:06:10;28.60;61.10
45491;DHT22;31237;45.586;13.782;2022-07-30T12:08:45;28.70;60.70
45491;DHT22;31237;45.586;13.782;2022-07-30T12:11:11;28.70;60.10
45491;DHT22;31237;45.586;13.782;2022-07-30T12:13:39;28.80;59.80
45491;DHT22;31237;45.586;13.782;2022-07-30T12:16:08;28.70;59.30
45491;DHT22;31237;45.586;13.782;2022-07-30T12:18:35;28.70;58.30
45491;DHT22;31237;45.586;13.782;2022-07-30T12:21:06;28.70;57.20
45491;DHT22;31237;45.586;13.782;2022-07-30T12:23:41;28.60;57.10
45491;DHT22;31237;45.586;13.782;2022-07-30T12:26:21;28.50;55.70
45491;DHT22;31237;45.586;13.782;2022-07-30T12:28:49;28.40;55.70
45491;DHT22;31237;45.586;13.782;2022-07-30T12:31:15;28.40;55.80
45491;DHT22;31237;45.586;13.782;2022-07-30T12:33:41;28.40;55.80
45491;DHT22;31237;45.586;13.782;2022-07-30T12:36:07;28.40;56.50
45491;DHT22;31237;45.586;13.782;2022-07-30T12:38:45;28.50;57.00
45491;DHT22;31237;45.586;13.782;2022-07-30T12:41:13;28.60;56.90
45491;DHT22;31237;45.586;13.782;2022-07-30T12:43:43;28.70;56.80
45491;DHT22;31237;45.586;13.782;2022-07-30T12:46:10;28.90;56.60
45491;DHT22;31237;45.586;13.782;2022-07-30T12:48:36;29.00;56.70
45491;DHT22;31237;45.586;13.782;2022-07-30T12:51:08;29.10;55.80
45491;DHT22;31237;45.586;13.782;2022-07-30T12:53:35;29.20;55.70
45491;DHT22;31237;45.586;13.782;2022-07-30T12:56:11;29.30;55.50
45491;DHT22;31237;45.586;13.782;2022-07-30T12:58:39;29.40;55.40
45491;DHT22;31237;45.586;13.782;2022-07-30T13:01:05;29.40;54.40
45491;DHT22;31237;45.586;13.782;2022-07-30T13:03:31;29.50;54.00
45491;DHT22;31237;45.586;13.782;2022-07-30T13:11:14;29.40;53.40
45491;DHT22;31237;45.586;13.782;2022-07-30T13:13:39;29.40;53.00
45491;DHT22;31237;45.586;13.782;2022-07-30T13:16:06;29.40;53.10
45491;DHT22;31237;45.586;13.782;2022-07-30T13:18:33;29.40;52.60
45491;DHT22;31237;45.586;13.782;2022-07-30T13:21:00;29.30;52.70
45491;DHT22;31237;45.586;13.782;2022-07-30T13:23:27;29.30;52.30
45491;DHT22;31237;45.586;13.782;2022-07-30T13:25:55;29.30;52.20
45491;DHT22;31237;45.586;13.782;2022-07-30T13:28:21;29.20;51.30
45491;DHT22;31237;45.586;13.782;2022-07-30T13:30:48;29.20;50.80
45491;DHT22;31237;45.586;13.782;2022-07-30T13:33:14;29.10;50.60
45491;DHT22;31237;45.586;13.782;2022-07-30T13:35:40;29.10;51.20
45491;DHT22;31237;45.586;13.782;2022-07-30T13:38:06;29.00;51.10
45491;DHT22;31237;45.586;13.782;2022-07-30T13:40:32;29.00;51.00
45491;DHT22;31237;45.586;13.782;2022-07-30T13:42:59;29.00;50.90
45491;DHT22;31237;45.586;13.782;2022-07-30T13:45:25;29.00;50.70
45491;DHT22;31237;45.586;13.782;2022-07-30T13:47:52;29.10;50.90
45491;DHT22;31237;45.586;13.782;2022-07-30T13:50:17;29.00;50.80
45491;DHT22;31237;45.586;13.782;2022-07-30T13:52:43;29.00;50.60
45491;DHT22;31237;45.586;13.782;2022-07-30T13:55:09;28.90;50.60
45491;DHT22;31237;45.586;13.782;2022-07-30T13:57:35;28.90;50.70
45491;DHT22;31237;45.586;13.782;2022-07-30T14:00:01;28.90;50.90
45491;DHT22;31237;45.586;13.782;2022-07-30T14:02:26;28.90;50.90
45491;DHT22;31237;45.586;13.782;2022-07-30T14:04:52;28.90;51.00
45491;DHT22;31237;45.586;13.782;2022-07-30T14:07:18;28.90;50.70
45491;DHT22;31237;45.586;13.782;2022-07-30T14:09:43;28.90;50.70
45491;DHT22;31237;45.586;13.782;2022-07-30T14:12:09;28.90;50.60
45491;DHT22;31237;45.586;13.782;2022-07-30T14:14:35;28.90;50.60
45491;DHT22;31237;45.586;13.782;2022-07-30T14:17:00;28.90;50.80
45491;DHT22;31237;45.586;13.782;2022-07-30T14:19:26;28.90;50.70
45491;DHT22;31237;45.586;13.782;2022-07-30T14:21:52;28.80;50.30
45491;DHT22;31237;45.586;13.782;2022-07-30T14:24:18;28.80;50.10
45491;DHT22;31237;45.586;13.782;2022-07-30T14:26:44;28.80;49.60
45491;DHT22;31237;45.586;13.782;2022-07-30T14:29:10;28.80;49.40
45491;DHT22;31237;45.586;13.782;2022-07-30T14:31:36;28.80;49.00
45491;DHT22;31237;45.586;13.782;2022-07-30T14:34:02;28.80;49.00
45491;DHT22;31237;45.586;13.782;2022-07-30T14:36:28;28.80;49.90
45491;DHT22;31237;45.586;13.782;2022-07-30T14:38:58;28.80;49.50
45491;DHT22;31237;45.586;13.782;2022-07-30T14:41:25;28.80;49.40
45491;DHT22;31237;45.586;13.782;2022-07-30T14:43:51;28.80;49.30
45491;DHT22;31237;45.586;13.782;2022-07-30T14:46:18;28.90;49.50
45491;DHT22;31237;45.586;13.782;2022-07-30T14:48:44;28.90;49.40
45491;DHT22;31237;45.586;13.782;2022-07-30T14:51:10;28.90;49.50
45491;DHT22;31237;45.586;13.782;2022-07-30T14:53:35;28.90;49.50
45491;DHT22;31237;45.586;13.782;2022-07-30T14:56:01;28.90;49.60
45491;DHT22;31237;45.586;13.782;2022-07-30T14:58:27;28.90;49.50
45491;DHT22;31237;45.586;13.782;2022-07-30T15:00:53;28.90;49.10
45491;DHT22;31237;45.586;13.782;2022-07-30T15:03:19;28.90;49.10
45491;DHT22;31237;45.586;13.782;2022-07-30T15:05:44;29.00;48.90
45491;DHT22;31237;45.586;13.782;2022-07-30T15:08:10;29.00;49.00
45491;DHT22;31237;45.586;13.782;2022-07-30T15:10:37;29.00;49.00
45491;DHT22;31237;45.586;13.782;2022-07-30T15:13:03;29.00;49.00
45491;DHT22;31237;45.586;13.782;2022-07-30T15:15:29;29.00;48.90
45491;DHT22;31237;45.586;13.782;2022-07-30T15:17:54;29.10;48.50
45491;DHT22;31237;45.586;13.782;2022-07-30T15:20:20;29.10;48.60
45491;DHT22;31237;45.586;13.782;2022-07-30T15:22:46;29.10;48.90
45491;DHT22;31237;45.586;13.782;2022-07-30T15:25:12;29.10;48.50
45491;DHT22;31237;45.586;13.782;2022-07-30T15:27:37;29.10;48.40
45491;DHT22;31237;45.586;13.782;2022-07-30T15:30:04;29.10;48.20
45491;DHT22;31237;45.586;13.782;2022-07-30T15:32:30;29.10;47.30
45491;DHT22;31237;45.586;13.782;2022-07-30T15:34:56;29.10;46.50
45491;DHT22;31237;45.586;13.782;2022-07-30T15:37:23;29.10;46.90
45491;DHT22;31237;45.586;13.782;2022-07-30T15:39:49;29.10;47.00
45491;DHT22;31237;45.586;13.782;2022-07-30T15:42:15;29.10;47.20
45491;DHT22;31237;45.586;13.782;2022-07-30T15:44:41;29.10;47.70
45491;DHT22;31237;45.586;13.782;2022-07-30T15:47:06;29.20;47.90
45491;DHT22;31237;45.586;13.782;2022-07-30T15:49:32;29.20;47.60
45491;DHT22;31237;45.586;13.782;2022-07-30T15:51:59;29.20;51.50
45491;DHT22;31237;45.586;13.782;2022-07-30T15:54:25;29.10;55.80
45491;DHT22;31237;45.586;13.782;2022-07-30T15:56:51;28.90;56.70
45491;DHT22;31237;45.586;13.782;2022-07-30T15:59:19;28.60;57.40
45491;DHT22;31237;45.586;13.782;2022-07-30T16:01:46;28.30;59.00
45491;DHT22;31237;45.586;13.782;2022-07-30T16:04:12;28.00;57.80
45491;DHT22;31237;45.586;13.782;2022-07-30T16:06:39;27.60;54.30
45491;DHT22;31237;45.586;13.782;2022-07-30T16:09:06;27.20;53.90
45491;DHT22;31237;45.586;13.782;2022-07-30T16:11:32;26.70;53.80
45491;DHT22;31237;45.586;13.782;2022-07-30T16:13:58;26.40;53.40
45491;DHT22;31237;45.586;13.782;2022-07-30T16:16:24;26.20;54.00
45491;DHT22;31237;45.586;13.782;2022-07-30T16:18:50;26.00;54.60